sensor_id;sensor_type;location;lat;lon;timestamp;P1;durP1;ratioP1;P2;durP2;ratioP2
8694;SDS011;65580;49.446;6.854;2023-09-19T00:03:10;7.97;;;2.20;;
8694;SDS011;65580;49.446;6.854;2023-09-19T00:07:14;4.07;;;1.98;;
8694;SDS011;65580;49.446;6.854;2023-09-19T00:11:18;9.27;;;2.00;;
8694;SDS011;65580;49.446;6.854;2023-09-19T00:19:26;5.95;;;2.28;;
8694;SDS011;65580;49.446;6.854;2023-09-19T00:23:30;9.60;;;2.70;;
8694;SDS011;65580;49.446;6.854;2023-09-19T00:27:34;7.95;;;2.40;;
8694;SDS011;65580;49.446;6.854;2023-09-19T00:31:43;8.05;;;2.17;;
8694;SDS011;65580;49.446;6.854;2023-09-19T00:35:48;5.97;;;2.30;;
8694;SDS011;65580;49.446;6.854;2023-09-19T00:39:52;4.10;;;2.50;;
8694;SDS011;65580;49.446;6.854;2023-09-19T00:43:55;5.47;;;2.40;;
8694;SDS011;65580;49.446;6.854;2023-09-19T00:47:59;4.22;;;2.30;;
8694;SDS011;65580;49.446;6.854;2023-09-19T00:52:14;3.22;;;2.15;;
8694;SDS011;65580;49.446;6.854;2023-09-19T00:56:20;5.32;;;2.45;;
8694;SDS011;65580;49.446;6.854;2023-09-19T01:00:28;7.95;;;3.30;;
8694;SDS011;65580;49.446;6.854;2023-09-19T01:04:37;8.57;;;2.95;;
8694;SDS011;65580;49.446;6.854;2023-09-19T01:08:42;3.25;;;2.33;;
8694;SDS011;65580;49.446;6.854;2023-09-19T01:12:48;5.00;;;2.95;;
8694;SDS011;65580;49.446;6.854;2023-09-19T01:16:57;7.25;;;3.60;;
8694;SDS011;65580;49.446;6.854;2023-09-19T01:21:05;7.82;;;2.72;;
8694;SDS011;65580;49.446;6.854;2023-09-19T01:29:51;8.63;;;2.63;;
8694;SDS011;65580;49.446;6.854;2023-09-19T01:33:58;9.38;;;3.08;;
8694;SDS011;65580;49.446;6.854;2023-09-19T01:42:12;6.00;;;2.42;;
8694;SDS011;65580;49.446;6.854;2023-09-19T01:46:26;13.07;;;2.63;;
8694;SDS011;65580;49.446;6.854;2023-09-19T01:50:34;7.70;;;2.13;;
8694;SDS011;65580;49.446;6.854;2023-09-19T01:54:49;9.20;;;2.65;;
8694;SDS011;65580;49.446;6.854;2023-09-19T01:58:56;7.85;;;2.45;;
8694;SDS011;65580;49.446;6.854;2023-09-19T02:03:02;5.80;;;2.35;;
8694;SDS011;65580;49.446;6.854;2023-09-19T02:07:07;10.50;;;2.33;;
8694;SDS011;65580;49.446;6.854;2023-09-19T02:11:10;6.93;;;2.50;;
8694;SDS011;65580;49.446;6.854;2023-09-19T02:15:14;6.50;;;2.30;;
8694;SDS011;65580;49.446;6.854;2023-09-19T02:19:18;8.70;;;2.60;;
8694;SDS011;65580;49.446;6.854;2023-09-19T02:23:24;9.02;;;2.55;;
8694;SDS011;65580;49.446;6.854;2023-09-19T02:27:27;10.20;;;2.60;;
8694;SDS011;65580;49.446;6.854;2023-09-19T02:31:30;10.73;;;2.67;;
8694;SDS011;65580;49.446;6.854;2023-09-19T02:35:34;9.27;;;2.65;;
8694;SDS011;65580;49.446;6.854;2023-09-19T02:39:39;5.72;;;2.25;;
8694;SDS011;65580;49.446;6.854;2023-09-19T02:43:43;7.32;;;2.40;;
8694;SDS011;65580;49.446;6.854;2023-09-19T02:47:46;7.57;;;2.72;;
8694;SDS011;65580;49.446;6.854;2023-09-19T02:51:50;6.28;;;2.05;;
8694;SDS011;65580;49.446;6.854;2023-09-19T02:55:56;5.03;;;2.28;;
8694;SDS011;65580;49.446;6.854;2023-09-19T03:00:00;6.93;;;2.58;;
8694;SDS011;65580;49.446;6.854;2023-09-19T03:04:03;9.52;;;2.42;;
8694;SDS011;65580;49.446;6.854;2023-09-19T03:08:09;6.55;;;2.47;;
8694;SDS011;65580;49.446;6.854;2023-09-19T03:12:14;10.18;;;3.15;;
8694;SDS011;65580;49.446;6.854;2023-09-19T03:16:17;3.67;;;2.28;;
8694;SDS011;65580;49.446;6.854;2023-09-19T03:20:23;6.97;;;2.35;;
8694;SDS011;65580;49.446;6.854;2023-09-19T03:24:26;6.35;;;2.67;;
8694;SDS011;65580;49.446;6.854;2023-09-19T03:28:32;9.55;;;3.40;;
8694;SDS011;65580;49.446;6.854;2023-09-19T03:32:36;5.68;;;2.78;;
8694;SDS011;65580;49.446;6.854;2023-09-19T03:36:39;9.90;;;4.95;;
8694;SDS011;65580;49.446;6.854;2023-09-19T03:40:43;8.23;;;2.83;;
8694;SDS011;65580;49.446;6.854;2023-09-19T03:44:48;5.63;;;2.55;;
8694;SDS011;65580;49.446;6.854;2023-09-19T03:48:51;7.53;;;2.63;;
8694;SDS011;65580;49.446;6.854;2023-09-19T03:52:56;6.10;;;2.10;;
8694;SDS011;65580;49.446;6.854;2023-09-19T03:57:01;9.23;;;2.65;;
8694;SDS011;65580;49.446;6.854;2023-09-19T04:01:07;6.55;;;2.50;;
8694;SDS011;65580;49.446;6.854;2023-09-19T04:05:10;6.25;;;2.58;;
8694;SDS011;65580;49.446;6.854;2023-09-19T04:09:13;7.20;;;2.15;;
8694;SDS011;65580;49.446;6.854;2023-09-19T04:13:17;6.78;;;2.45;;
8694;SDS011;65580;49.446;6.854;2023-09-19T04:17:22;8.18;;;3.20;;
8694;SDS011;65580;49.446;6.854;2023-09-19T04:21:25;7.57;;;3.13;;
8694;SDS011;65580;49.446;6.854;2023-09-19T04:25:29;11.52;;;2.75;;
8694;SDS011;65580;49.446;6.854;2023-09-19T04:29:33;9.68;;;2.80;;
8694;SDS011;65580;49.446;6.854;2023-09-19T04:33:38;8.05;;;3.10;;
8694;SDS011;65580;49.446;6.854;2023-09-19T04:37:41;9.05;;;2.47;;
8694;SDS011;65580;49.446;6.854;2023-09-19T04:41:44;9.90;;;2.60;;
8694;SDS011;65580;49.446;6.854;2023-09-19T04:45:49;7.28;;;2.63;;
8694;SDS011;65580;49.446;6.854;2023-09-19T04:49:58;12.77;;;3.58;;
8694;SDS011;65580;49.446;6.854;2023-09-19T04:54:01;8.02;;;3.30;;
8694;SDS011;65580;49.446;6.854;2023-09-19T05:02:12;10.25;;;2.60;;
8694;SDS011;65580;49.446;6.854;2023-09-19T05:06:16;11.35;;;2.88;;
8694;SDS011;65580;49.446;6.854;2023-09-19T05:10:20;6.22;;;2.60;;
8694;SDS011;65580;49.446;6.854;2023-09-19T05:14:23;8.95;;;2.78;;
8694;SDS011;65580;49.446;6.854;2023-09-19T05:18:27;10.35;;;2.95;;
8694;SDS011;65580;49.446;6.854;2023-09-19T05:22:32;13.90;;;3.67;;
8694;SDS011;65580;49.446;6.854;2023-09-19T05:26:36;11.52;;;2.95;;
8694;SDS011;65580;49.446;6.854;2023-09-19T05:30:39;7.93;;;2.85;;
8694;SDS011;65580;49.446;6.854;2023-09-19T05:34:47;12.30;;;3.13;;
8694;SDS011;65580;49.446;6.854;2023-09-19T05:38:56;10.07;;;3.80;;
8694;SDS011;65580;49.446;6.854;2023-09-19T05:42:59;10.65;;;3.50;;
8694;SDS011;65580;49.446;6.854;2023-09-19T05:47:04;14.70;;;3.20;;
8694;SDS011;65580;49.446;6.854;2023-09-19T05:55:12;14.32;;;3.08;;
8694;SDS011;65580;49.446;6.854;2023-09-19T05:59:16;9.30;;;3.00;;
8694;SDS011;65580;49.446;6.854;2023-09-19T06:03:19;8.40;;;2.67;;
8694;SDS011;65580;49.446;6.854;2023-09-19T06:11:29;7.93;;;2.90;;
8694;SDS011;65580;49.446;6.854;2023-09-19T06:15:36;8.95;;;2.90;;
8694;SDS011;65580;49.446;6.854;2023-09-19T06:19:40;12.60;;;2.85;;
8694;SDS011;65580;49.446;6.854;2023-09-19T06:23:48;12.00;;;3.00;;
8694;SDS011;65580;49.446;6.854;2023-09-19T06:27:53;13.45;;;2.67;;
8694;SDS011;65580;49.446;6.854;2023-09-19T06:31:57;11.15;;;2.80;;
8694;SDS011;65580;49.446;6.854;2023-09-19T06:36:02;10.43;;;2.38;;
8694;SDS011;65580;49.446;6.854;2023-09-19T06:40:07;16.33;;;3.25;;
8694;SDS011;65580;49.446;6.854;2023-09-19T06:48:23;11.70;;;3.10;;
8694;SDS011;65580;49.446;6.854;2023-09-19T06:52:28;10.30;;;2.30;;
8694;SDS011;65580;49.446;6.854;2023-09-19T07:00:36;12.25;;;2.45;;
8694;SDS011;65580;49.446;6.854;2023-09-19T07:04:40;12.73;;;1.98;;
8694;SDS011;65580;49.446;6.854;2023-09-19T07:08:43;12.23;;;2.33;;
8694;SDS011;65580;49.446;6.854;2023-09-19T07:12:54;9.95;;;2.00;;
8694;SDS011;65580;49.446;6.854;2023-09-19T07:16:59;10.85;;;1.70;;
8694;SDS011;65580;49.446;6.854;2023-09-19T07:21:03;9.48;;;1.80;;
8694;SDS011;65580;49.446;6.854;2023-09-19T07:25:08;9.07;;;1.90;;
8694;SDS011;65580;49.446;6.854;2023-09-19T07:29:20;6.90;;;1.67;;
8694;SDS011;65580;49.446;6.854;2023-09-19T07:33:26;15.25;;;2.42;;
8694;SDS011;65580;49.446;6.854;2023-09-19T07:37:39;16.02;;;2.30;;
8694;SDS011;65580;49.446;6.854;2023-09-19T07:41:42;9.60;;;1.70;;
8694;SDS011;65580;49.446;6.854;2023-09-19T07:45:45;8.55;;;1.92;;
8694;SDS011;65580;49.446;6.854;2023-09-19T07:49:50;8.15;;;1.67;;
8694;SDS011;65580;49.446;6.854;2023-09-19T07:53:54;9.77;;;1.95;;
8694;SDS011;65580;49.446;6.854;2023-09-19T07:57:58;16.45;;;2.05;;
8694;SDS011;65580;49.446;6.854;2023-09-19T08:02:01;12.93;;;1.80;;
8694;SDS011;65580;49.446;6.854;2023-09-19T08:06:19;7.13;;;1.95;;
8694;SDS011;65580;49.446;6.854;2023-09-19T08:10:21;13.52;;;2.00;;
8694;SDS011;65580;49.446;6.854;2023-09-19T08:14:26;13.02;;;2.05;;
8694;SDS011;65580;49.446;6.854;2023-09-19T08:18:30;10.77;;;1.83;;
8694;SDS011;65580;49.446;6.854;2023-09-19T08:22:36;10.60;;;2.25;;
8694;SDS011;65580;49.446;6.854;2023-09-19T08:26:40;10.75;;;1.83;;
8694;SDS011;65580;49.446;6.854;2023-09-19T08:30:46;7.30;;;1.50;;
8694;SDS011;65580;49.446;6.854;2023-09-19T08:34:49;8.93;;;1.73;;
8694;SDS011;65580;49.446;6.854;2023-09-19T08:42:57;15.82;;;1.77;;
8694;SDS011;65580;49.446;6.854;2023-09-19T08:47:01;6.50;;;1.48;;
8694;SDS011;65580;49.446;6.854;2023-09-19T08:51:12;12.52;;;1.73;;
8694;SDS011;65580;49.446;6.854;2023-09-19T08:55:23;11.50;;;1.75;;
8694;SDS011;65580;49.446;6.854;2023-09-19T08:59:39;10.32;;;1.80;;
8694;SDS011;65580;49.446;6.854;2023-09-19T09:03:47;9.35;;;1.65;;
8694;SDS011;65580;49.446;6.854;2023-09-19T09:07:52;8.65;;;1.83;;
8694;SDS011;65580;49.446;6.854;2023-09-19T09:11:59;7.85;;;2.05;;
8694;SDS011;65580;49.446;6.854;2023-09-19T09:16:03;9.75;;;1.50;;
8694;SDS011;65580;49.446;6.854;2023-09-19T09:28:44;10.73;;;1.50;;
8694;SDS011;65580;49.446;6.854;2023-09-19T09:32:49;9.60;;;1.73;;
8694;SDS011;65580;49.446;6.854;2023-09-19T09:37:15;10.10;;;1.67;;
8694;SDS011;65580;49.446;6.854;2023-09-19T09:41:21;8.13;;;1.55;;
8694;SDS011;65580;49.446;6.854;2023-09-19T09:45:42;6.78;;;1.58;;
8694;SDS011;65580;49.446;6.854;2023-09-19T09:49:50;9.75;;;2.08;;
8694;SDS011;65580;49.446;6.854;2023-09-19T09:54:09;9.10;;;1.42;;
8694;SDS011;65580;49.446;6.854;2023-09-19T09:58:16;8.18;;;1.60;;
8694;SDS011;65580;49.446;6.854;2023-09-19T10:02:25;6.93;;;1.50;;
8694;SDS011;65580;49.446;6.854;2023-09-19T10:06:40;6.03;;;1.45;;
8694;SDS011;65580;49.446;6.854;2023-09-19T10:10:49;8.02;;;1.40;;
8694;SDS011;65580;49.446;6.854;2023-09-19T10:15:05;5.20;;;1.10;;
8694;SDS011;65580;49.446;6.854;2023-09-19T10:19:15;7.28;;;1.33;;
8694;SDS011;65580;49.446;6.854;2023-09-19T10:23:19;5.60;;;1.60;;
8694;SDS011;65580;49.446;6.854;2023-09-19T10:27:25;6.28;;;1.48;;
8694;SDS011;65580;49.446;6.854;2023-09-19T10:31:31;8.77;;;1.30;;
8694;SDS011;65580;49.446;6.854;2023-09-19T10:35:39;3.38;;;1.15;;
8694;SDS011;65580;49.446;6.854;2023-09-19T10:39:45;4.60;;;1.38;;
8694;SDS011;65580;49.446;6.854;2023-09-19T10:43:54;6.05;;;1.23;;
8694;SDS011;65580;49.446;6.854;2023-09-19T10:48:01;4.18;;;1.20;;
8694;SDS011;65580;49.446;6.854;2023-09-19T10:52:08;7.82;;;1.48;;
8694;SDS011;65580;49.446;6.854;2023-09-19T10:56:16;5.18;;;1.25;;
8694;SDS011;65580;49.446;6.854;2023-09-19T11:00:22;4.85;;;1.23;;
8694;SDS011;65580;49.446;6.854;2023-09-19T11:04:29;5.50;;;1.33;;
8694;SDS011;65580;49.446;6.854;2023-09-19T11:13:25;5.80;;;1.17;;
8694;SDS011;65580;49.446;6.854;2023-09-19T11:17:41;4.20;;;1.25;;
8694;SDS011;65580;49.446;6.854;2023-09-19T11:21:54;6.35;;;1.40;;
8694;SDS011;65580;49.446;6.854;2023-09-19T11:25:59;5.80;;;1.20;;
8694;SDS011;65580;49.446;6.854;2023-09-19T11:34:38;8.73;;;1.50;;
8694;SDS011;65580;49.446;6.854;2023-09-19T11:38:59;7.22;;;1.40;;
8694;SDS011;65580;49.446;6.854;2023-09-19T11:43:29;3.00;;;0.90;;
8694;SDS011;65580;49.446;6.854;2023-09-19T11:47:36;5.53;;;1.38;;
8694;SDS011;65580;49.446;6.854;2023-09-19T11:51:45;3.50;;;1.17;;
8694;SDS011;65580;49.446;6.854;2023-09-19T11:55:50;3.67;;;1.10;;
8694;SDS011;65580;49.446;6.854;2023-09-19T11:59:55;6.05;;;1.10;;
8694;SDS011;65580;49.446;6.854;2023-09-19T12:04:00;4.25;;;1.20;;
8694;SDS011;65580;49.446;6.854;2023-09-19T12:08:07;6.10;;;1.23;;
8694;SDS011;65580;49.446;6.854;2023-09-19T12:12:11;2.70;;;1.15;;
8694;SDS011;65580;49.446;6.854;2023-09-19T12:16:20;5.55;;;1.20;;
8694;SDS011;65580;49.446;6.854;2023-09-19T12:20:40;4.10;;;1.00;;
8694;SDS011;65580;49.446;6.854;2023-09-19T12:24:48;7.30;;;1.55;;
8694;SDS011;65580;49.446;6.854;2023-09-19T12:28:52;4.53;;;1.20;;
8694;SDS011;65580;49.446;6.854;2023-09-19T12:32:57;5.40;;;0.90;;
8694;SDS011;65580;49.446;6.854;2023-09-19T12:37:04;7.68;;;1.10;;
8694;SDS011;65580;49.446;6.854;2023-09-19T12:41:14;3.50;;;1.10;;
8694;SDS011;65580;49.446;6.854;2023-09-19T12:45:17;3.63;;;1.08;;
8694;SDS011;65580;49.446;6.854;2023-09-19T12:49:21;3.90;;;0.73;;
8694;SDS011;65580;49.446;6.854;2023-09-19T12:53:25;3.13;;;1.00;;
8694;SDS011;65580;49.446;6.854;2023-09-19T12:57:30;2.63;;;1.10;;
8694;SDS011;65580;49.446;6.854;2023-09-19T13:01:36;3.97;;;0.90;;
8694;SDS011;65580;49.446;6.854;2023-09-19T13:05:55;3.63;;;0.80;;
8694;SDS011;65580;49.446;6.854;2023-09-19T13:10:05;5.90;;;1.15;;
8694;SDS011;65580;49.446;6.854;2023-09-19T13:18:21;5.03;;;1.17;;
8694;SDS011;65580;49.446;6.854;2023-09-19T13:22:43;4.20;;;1.20;;
8694;SDS011;65580;49.446;6.854;2023-09-19T13:26:57;4.25;;;1.20;;
8694;SDS011;65580;49.446;6.854;2023-09-19T13:31:01;3.08;;;1.00;;
8694;SDS011;65580;49.446;6.854;2023-09-19T13:35:05;4.07;;;1.23;;
8694;SDS011;65580;49.446;6.854;2023-09-19T13:39:11;4.28;;;1.00;;
8694;SDS011;65580;49.446;6.854;2023-09-19T13:43:23;7.15;;;1.48;;
8694;SDS011;65580;49.446;6.854;2023-09-19T13:47:26;4.07;;;1.02;;
8694;SDS011;65580;49.446;6.854;2023-09-19T13:51:31;1.77;;;0.95;;
8694;SDS011;65580;49.446;6.854;2023-09-19T13:55:46;3.40;;;0.90;;
8694;SDS011;65580;49.446;6.854;2023-09-19T14:00:06;5.93;;;1.13;;
8694;SDS011;65580;49.446;6.854;2023-09-19T14:04:12;2.15;;;0.90;;
8694;SDS011;65580;49.446;6.854;2023-09-19T14:08:18;3.67;;;1.00;;
8694;SDS011;65580;49.446;6.854;2023-09-19T14:12:25;4.35;;;1.20;;
8694;SDS011;65580;49.446;6.854;2023-09-19T14:16:28;3.05;;;1.00;;
8694;SDS011;65580;49.446;6.854;2023-09-19T14:20:32;3.30;;;0.88;;
8694;SDS011;65580;49.446;6.854;2023-09-19T14:24:35;5.20;;;1.00;;
8694;SDS011;65580;49.446;6.854;2023-09-19T14:28:39;5.22;;;0.98;;
8694;SDS011;65580;49.446;6.854;2023-09-19T14:32:49;2.25;;;1.02;;
8694;SDS011;65580;49.446;6.854;2023-09-19T14:36:52;1.50;;;0.70;;
8694;SDS011;65580;49.446;6.854;2023-09-19T14:40:59;2.10;;;1.35;;
8694;SDS011;65580;49.446;6.854;2023-09-19T14:45:06;2.65;;;1.10;;
8694;SDS011;65580;49.446;6.854;2023-09-19T14:49:16;3.58;;;1.00;;
8694;SDS011;65580;49.446;6.854;2023-09-19T14:53:21;2.80;;;1.00;;
8694;SDS011;65580;49.446;6.854;2023-09-19T14:57:24;2.78;;;0.90;;
8694;SDS011;65580;49.446;6.854;2023-09-19T15:01:29;3.53;;;0.95;;
8694;SDS011;65580;49.446;6.854;2023-09-19T15:05:33;7.07;;;1.10;;
8694;SDS011;65580;49.446;6.854;2023-09-19T15:09:38;2.30;;;1.00;;
8694;SDS011;65580;49.446;6.854;2023-09-19T15:13:41;4.95;;;1.00;;
8694;SDS011;65580;49.446;6.854;2023-09-19T15:17:47;3.28;;;0.70;;
8694;SDS011;65580;49.446;6.854;2023-09-19T15:21:52;5.55;;;0.90;;
8694;SDS011;65580;49.446;6.854;2023-09-19T15:25:55;4.45;;;0.90;;
8694;SDS011;65580;49.446;6.854;2023-09-19T15:34:08;3.50;;;0.95;;
8694;SDS011;65580;49.446;6.854;2023-09-19T15:38:15;2.38;;;0.82;;
8694;SDS011;65580;49.446;6.854;2023-09-19T15:42:24;2.20;;;1.10;;
8694;SDS011;65580;49.446;6.854;2023-09-19T15:46:38;1.83;;;0.82;;
8694;SDS011;65580;49.446;6.854;2023-09-19T15:50:43;2.67;;;1.02;;
8694;SDS011;65580;49.446;6.854;2023-09-19T15:54:46;1.75;;;0.90;;
8694;SDS011;65580;49.446;6.854;2023-09-19T15:58:52;4.05;;;1.35;;
8694;SDS011;65580;49.446;6.854;2023-09-19T16:02:56;2.95;;;0.90;;
8694;SDS011;65580;49.446;6.854;2023-09-19T16:07:01;2.58;;;0.85;;
8694;SDS011;65580;49.446;6.854;2023-09-19T16:11:05;4.05;;;0.82;;
8694;SDS011;65580;49.446;6.854;2023-09-19T16:19:12;3.80;;;0.90;;
8694;SDS011;65580;49.446;6.854;2023-09-19T16:23:17;3.92;;;1.17;;
8694;SDS011;65580;49.446;6.854;2023-09-19T16:27:21;3.13;;;0.93;;
8694;SDS011;65580;49.446;6.854;2023-09-19T16:31:24;2.45;;;1.10;;
8694;SDS011;65580;49.446;6.854;2023-09-19T16:35:36;2.90;;;0.98;;
8694;SDS011;65580;49.446;6.854;2023-09-19T16:39:41;1.58;;;0.98;;
8694;SDS011;65580;49.446;6.854;2023-09-19T16:43:44;2.33;;;1.00;;
8694;SDS011;65580;49.446;6.854;2023-09-19T16:47:48;1.42;;;0.88;;
8694;SDS011;65580;49.446;6.854;2023-09-19T16:51:50;1.67;;;0.90;;
8694;SDS011;65580;49.446;6.854;2023-09-19T16:55:59;5.90;;;1.05;;
8694;SDS011;65580;49.446;6.854;2023-09-19T17:00:06;2.80;;;1.00;;
8694;SDS011;65580;49.446;6.854;2023-09-19T17:04:11;1.90;;;1.08;;
8694;SDS011;65580;49.446;6.854;2023-09-19T17:08:14;2.33;;;0.90;;
8694;SDS011;65580;49.446;6.854;2023-09-19T17:12:19;3.22;;;0.93;;
8694;SDS011;65580;49.446;6.854;2023-09-19T17:16:22;3.85;;;1.00;;
8694;SDS011;65580;49.446;6.854;2023-09-19T17:20:25;3.13;;;1.10;;
8694;SDS011;65580;49.446;6.854;2023-09-19T17:24:28;3.17;;;1.25;;
8694;SDS011;65580;49.446;6.854;2023-09-19T17:28:32;2.75;;;1.20;;
8694;SDS011;65580;49.446;6.854;2023-09-19T17:32:36;2.75;;;1.33;;
8694;SDS011;65580;49.446;6.854;2023-09-19T17:36:38;4.38;;;0.90;;
8694;SDS011;65580;49.446;6.854;2023-09-19T17:40:44;2.13;;;1.00;;
8694;SDS011;65580;49.446;6.854;2023-09-19T17:44:49;5.10;;;1.10;;
8694;SDS011;65580;49.446;6.854;2023-09-19T17:48:52;3.08;;;1.10;;
8694;SDS011;65580;49.446;6.854;2023-09-19T17:52:56;2.83;;;0.90;;
8694;SDS011;65580;49.446;6.854;2023-09-19T17:56:59;3.53;;;0.98;;
8694;SDS011;65580;49.446;6.854;2023-09-19T18:01:10;3.85;;;0.98;;
8694;SDS011;65580;49.446;6.854;2023-09-19T18:05:13;1.15;;;0.85;;
8694;SDS011;65580;49.446;6.854;2023-09-19T18:09:28;2.53;;;0.85;;
8694;SDS011;65580;49.446;6.854;2023-09-19T18:13:33;1.92;;;1.10;;
8694;SDS011;65580;49.446;6.854;2023-09-19T18:17:41;4.63;;;1.42;;
8694;SDS011;65580;49.446;6.854;2023-09-19T18:21:44;4.03;;;1.10;;
8694;SDS011;65580;49.446;6.854;2023-09-19T18:25:47;5.60;;;1.33;;
8694;SDS011;65580;49.446;6.854;2023-09-19T18:30:04;3.33;;;1.25;;
8694;SDS011;65580;49.446;6.854;2023-09-19T18:34:10;2.83;;;1.10;;
8694;SDS011;65580;49.446;6.854;2023-09-19T18:38:15;5.10;;;1.27;;
8694;SDS011;65580;49.446;6.854;2023-09-19T18:42:21;6.18;;;1.10;;
8694;SDS011;65580;49.446;6.854;2023-09-19T18:50:33;3.95;;;1.67;;
8694;SDS011;65580;49.446;6.854;2023-09-19T18:54:37;3.67;;;1.38;;
8694;SDS011;65580;49.446;6.854;2023-09-19T19:02:50;3.53;;;1.40;;
8694;SDS011;65580;49.446;6.854;2023-09-19T19:06:56;2.90;;;1.20;;
8694;SDS011;65580;49.446;6.854;2023-09-19T19:11:05;2.88;;;1.30;;
8694;SDS011;65580;49.446;6.854;2023-09-19T19:15:09;2.17;;;1.30;;
8694;SDS011;65580;49.446;6.854;2023-09-19T19:19:13;4.68;;;1.42;;
8694;SDS011;65580;49.446;6.854;2023-09-19T19:23:35;5.15;;;1.13;;
8694;SDS011;65580;49.446;6.854;2023-09-19T19:27:38;3.30;;;1.30;;
8694;SDS011;65580;49.446;6.854;2023-09-19T19:31:51;3.63;;;1.20;;
8694;SDS011;65580;49.446;6.854;2023-09-19T19:36:02;2.00;;;1.25;;
8694;SDS011;65580;49.446;6.854;2023-09-19T19:40:08;3.53;;;1.20;;
8694;SDS011;65580;49.446;6.854;2023-09-19T19:48:18;3.40;;;1.17;;
8694;SDS011;65580;49.446;6.854;2023-09-19T19:52:21;6.47;;;1.30;;
8694;SDS011;65580;49.446;6.854;2023-09-19T19:56:27;6.15;;;1.20;;
8694;SDS011;65580;49.446;6.854;2023-09-19T20:00:31;4.15;;;1.20;;
8694;SDS011;65580;49.446;6.854;2023-09-19T20:04:36;4.20;;;1.30;;
8694;SDS011;65580;49.446;6.854;2023-09-19T20:08:42;2.45;;;1.30;;
8694;SDS011;65580;49.446;6.854;2023-09-19T20:12:47;3.40;;;1.30;;
8694;SDS011;65580;49.446;6.854;2023-09-19T20:16:51;2.88;;;1.30;;
8694;SDS011;65580;49.446;6.854;2023-09-19T20:20:55;9.43;;;1.60;;
8694;SDS011;65580;49.446;6.854;2023-09-19T20:24:58;2.78;;;1.30;;
8694;SDS011;65580;49.446;6.854;2023-09-19T20:29:03;2.22;;;1.15;;
8694;SDS011;65580;49.446;6.854;2023-09-19T20:33:07;2.67;;;1.40;;
8694;SDS011;65580;49.446;6.854;2023-09-19T20:37:13;3.72;;;1.40;;
8694;SDS011;65580;49.446;6.854;2023-09-19T20:41:17;3.17;;;1.50;;
8694;SDS011;65580;49.446;6.854;2023-09-19T20:45:22;3.25;;;1.10;;
8694;SDS011;65580;49.446;6.854;2023-09-19T20:49:25;2.35;;;1.20;;
8694;SDS011;65580;49.446;6.854;2023-09-19T20:53:32;3.92;;;1.45;;
8694;SDS011;65580;49.446;6.854;2023-09-19T20:57:37;10.23;;;1.50;;
8694;SDS011;65580;49.446;6.854;2023-09-19T21:06:13;3.83;;;1.52;;
8694;SDS011;65580;49.446;6.854;2023-09-19T21:14:31;5.88;;;1.25;;
8694;SDS011;65580;49.446;6.854;2023-09-19T21:18:39;4.57;;;1.58;;
8694;SDS011;65580;49.446;6.854;2023-09-19T21:22:43;3.80;;;1.45;;
8694;SDS011;65580;49.446;6.854;2023-09-19T21:26:47;3.83;;;1.40;;
8694;SDS011;65580;49.446;6.854;2023-09-19T21:30:56;2.95;;;1.40;;
8694;SDS011;65580;49.446;6.854;2023-09-19T21:35:01;4.45;;;1.45;;
8694;SDS011;65580;49.446;6.854;2023-09-19T21:39:06;5.00;;;1.27;;
8694;SDS011;65580;49.446;6.854;2023-09-19T21:43:09;4.90;;;1.55;;
8694;SDS011;65580;49.446;6.854;2023-09-19T21:51:16;4.50;;;1.45;;
8694;SDS011;65580;49.446;6.854;2023-09-19T21:55:20;6.05;;;1.45;;
8694;SDS011;65580;49.446;6.854;2023-09-19T21:59:23;4.32;;;1.40;;
8694;SDS011;65580;49.446;6.854;2023-09-19T22:03:26;2.40;;;1.45;;
8694;SDS011;65580;49.446;6.854;2023-09-19T22:07:32;4.68;;;1.55;;
8694;SDS011;65580;49.446;6.854;2023-09-19T22:11:35;7.30;;;1.30;;
8694;SDS011;65580;49.446;6.854;2023-09-19T22:15:38;5.05;;;1.85;;
8694;SDS011;65580;49.446;6.854;2023-09-19T22:19:43;2.80;;;1.58;;
8694;SDS011;65580;49.446;6.854;2023-09-19T22:23:47;5.32;;;1.52;;
8694;SDS011;65580;49.446;6.854;2023-09-19T22:27:55;7.40;;;1.23;;
8694;SDS011;65580;49.446;6.854;2023-09-19T22:31:58;5.63;;;1.55;;
8694;SDS011;65580;49.446;6.854;2023-09-19T22:36:01;4.93;;;1.60;;
8694;SDS011;65580;49.446;6.854;2023-09-19T22:40:08;4.25;;;1.90;;
8694;SDS011;65580;49.446;6.854;2023-09-19T22:44:26;2.83;;;1.58;;
8694;SDS011;65580;49.446;6.854;2023-09-19T22:48:29;3.83;;;1.33;;
8694;SDS011;65580;49.446;6.854;2023-09-19T22:52:32;3.75;;;1.40;;
8694;SDS011;65580;49.446;6.854;2023-09-19T22:56:39;3.70;;;1.60;;
8694;SDS011;65580;49.446;6.854;2023-09-19T23:00:42;4.30;;;1.80;;
8694;SDS011;65580;49.446;6.854;2023-09-19T23:04:47;4.57;;;2.05;;
8694;SDS011;65580;49.446;6.854;2023-09-19T23:08:50;4.25;;;1.60;;
8694;SDS011;65580;49.446;6.854;2023-09-19T23:12:56;5.70;;;1.40;;
8694;SDS011;65580;49.446;6.854;2023-09-19T23:16:59;4.40;;;1.60;;
8694;SDS011;65580;49.446;6.854;2023-09-19T23:21:06;4.50;;;1.50;;
8694;SDS011;65580;49.446;6.854;2023-09-19T23:25:23;3.88;;;1.58;;
8694;SDS011;65580;49.446;6.854;2023-09-19T23:29:31;3.28;;;1.75;;
8694;SDS011;65580;49.446;6.854;2023-09-19T23:33:36;3.15;;;1.67;;
8694;SDS011;65580;49.446;6.854;2023-09-19T23:37:39;4.18;;;1.40;;
8694;SDS011;65580;49.446;6.854;2023-09-19T23:41:43;3.80;;;1.80;;
8694;SDS011;65580;49.446;6.854;2023-09-19T23:45:47;6.60;;;1.40;;
8694;SDS011;65580;49.446;6.854;2023-09-19T23:49:50;3.05;;;1.80;;
8694;SDS011;65580;49.446;6.854;2023-09-19T23:53:54;6.05;;;1.77;;
8694;SDS011;65580;49.446;6.854;2023-09-19T23:58:00;5.03;;;1.63;;
